Ansbach, Germany

6:11 AM CEST on August 30, 2014 (GMT +0200)
Local Nursery | Change Station
CLOSE
Current Station
Personal Weather Station
Location: Heilsbronn, BAVARIA
Elevation: 1325 ft
Nearby Weather Stations

Elev 1325 ft 49.34 °N, 10.79 °E | Updated 3 seconds ago

Clear
Clear
60.8 °F
Feels Like 60.8 °F
N
0.7
Wind Variable Wind from SSE
Gusts 5.4 mph

Today
High -- | Low -- °F
--% Chance of Precip.
Yesterday
High -- | Low -- °F
Precip. -- in
6:30 AM 8:04 PM
Waxing Crescent, 19% visible
Pressure 30.09 in
Visibility 3.7 miles
Clouds Clear
Dew Point 60 °F
Humidity 97%
Rainfall 0.00 in
Snow Depth Not available.
UV 0.0 out of 12
Pollen Not available.
Air Quality Not available.
Flu Activity Not available.
SPECI ETIK 300404Z AUTO 27004KT 6000 BR CLR 14/14 A3009 RMK AO2

More Conditions Fewer Conditions

Pressure 30.09 in
Visibility 3.7 miles
Clouds Clear
Dew Point 60 °F
Humidity 97%
Rainfall 0.00 in
Snow Depth Not available.
UV 0.0 out of 12
Pollen Not available.
Air Quality Not available.
Flu Activity Not available.
SPECI ETIK 300404Z AUTO 27004KT 6000 BR CLR 14/14 A3009 RMK AO2

More Conditions Fewer Conditions

10-Day Weather Forecast

Almanac

Astronomy

Aug. 30, 2014 Rise Set
Actual Time 6:30 AM CEST 8:04 PM CEST
Civil Twilight 5:56 AM CEST 8:38 PM CEST
Nautical Twilight 5:16 AM CEST 9:18 PM CEST
Astronomical Twilight 4:31 AM CEST 10:03 PM CEST
Moon 11:29 AM CEST 9:59 PM CEST
Length of Visible Light 14h 41m
Length of Day
13h 34m
Tomorrow will be 3m 31s shorter.
Waxing Crescent, 19% of the Moon is Illuminated
Today
Waxing Crescent
Sep 2
First Quarter
Sep 8
Full
Sep 15
Last Quarter
Sep 24
New

Yesterday's Extremes

Country Highs Country Lows

Community

WunderPhotos

Upload Photos

1,748,448 photos uploaded!

Nearby

Snow Depth

Not available.

Earthquake Activity

City Distance Mag. Time & Date
No recent earthquake activity has been reported nearby.
Minimum magnitude displayed is 2.5.

Coastal Water Temperatures

Place Temperature
No Stations Reporting

Nearby Weather Stations